Time;durP1;ratioP1;P1;durP2;ratioP2;P2;SDS_P1;SDS_P2;PMS_P1;PMS_P2;Temp;Humidity;BMP_temperature;BMP_pressure;BME280_temperature;BME280_humidity;BME280_pressure;Samples;Min_cycle;Max_cycle;Signal;HPM_P1;HPM_P2
2022/07/23 00:00:12;;;;;;;0.70;0.70;;;22.50;53.70;;;;;;5074796;28;20047;-79
2022/07/23 00:02:38;;;;;;;1.10;1.00;;;22.50;53.70;;;;;;5068933;28;20049;-79
2022/07/23 00:05:04;;;;;;;1.67;1.05;;;22.50;53.80;;;;;;5054288;28;20029;-79
2022/07/23 00:07:29;;;;;;;0.80;0.80;;;22.50;53.80;;;;;;5046068;28;20029;-79
2022/07/23 00:09:55;;;;;;;0.80;0.80;;;22.40;53.80;;;;;;5061633;28;20025;-87
2022/07/23 00:12:21;;;;;;;1.02;0.80;;;22.40;53.80;;;;;;5039362;28;20453;-78
2022/07/23 00:14:47;;;;;;;0.77;0.77;;;22.40;53.80;;;;;;5062178;28;20060;-78
2022/07/23 00:17:12;;;;;;;0.80;0.80;;;22.30;53.90;;;;;;5059139;28;20036;-78
2022/07/23 00:19:38;;;;;;;0.93;0.85;;;22.30;53.90;;;;;;5051073;28;20440;-78
2022/07/23 00:22:04;;;;;;;0.73;0.73;;;22.30;53.90;;;;;;5049809;28;20039;-80
2022/07/23 00:24:30;;;;;;;1.00;0.90;;;22.30;54.00;;;;;;5054747;28;20540;-80
2022/07/23 00:26:55;;;;;;;1.10;1.00;;;22.20;53.90;;;;;;5055810;28;20033;-79
2022/07/23 00:29:21;;;;;;;0.77;0.77;;;22.20;54.00;;;;;;5048191;28;20033;-78
2022/07/23 00:31:47;;;;;;;3.28;1.02;;;22.20;54.00;;;;;;5036925;28;20445;-79
2022/07/23 00:34:12;;;;;;;1.00;0.93;;;22.20;54.10;;;;;;5023534;28;20500;-80
2022/07/23 00:36:39;;;;;;;1.27;1.00;;;22.10;54.00;;;;;;5041310;28;20030;-78
2022/07/23 00:39:05;;;;;;;0.90;0.90;;;22.20;54.10;;;;;;5054959;28;20358;-79
2022/07/23 00:41:31;;;;;;;1.25;0.98;;;22.10;54.70;;;;;;5037800;28;20432;-78
2022/07/23 00:44:18;;;;;;;1.65;0.82;;;22.10;54.10;;;;;;5046628;28;20488;-79
2022/07/23 00:46:53;;;;;;;1.60;1.10;;;22.10;54.30;;;;;;5068775;28;20040;-80
2022/07/23 00:49:21;;;;;;;0.90;0.90;;;22.00;54.20;;;;;;5058119;28;20033;-79
2022/07/23 00:51:48;;;;;;;0.82;0.70;;;22.00;54.30;;;;;;5038913;28;20021;-78
2022/07/23 00:54:15;;;;;;;1.38;1.00;;;22.00;54.20;;;;;;5024390;28;20039;-79
2022/07/23 00:56:43;;;;;;;0.88;0.88;;;22.00;54.40;;;;;;5060004;28;20477;-78
2022/07/23 00:59:09;;;;;;;1.30;1.20;;;21.90;54.90;;;;;;5030245;28;20154;-79
2022/07/23 01:01:35;;;;;;;1.65;1.13;;;21.90;54.30;;;;;;5054583;28;20432;-79
2022/07/23 01:04:01;;;;;;;2.15;1.42;;;21.90;54.30;;;;;;5051297;28;20040;-78
2022/07/23 01:06:27;;;;;;;1.17;1.00;;;21.90;54.40;;;;;;5053505;28;20117;-79
2022/07/23 01:08:54;;;;;;;1.20;1.10;;;21.80;54.40;;;;;;5055590;28;20173;-78
2022/07/23 01:11:22;;;;;;;1.92;1.13;;;21.80;54.40;;;;;;5070119;28;20031;-84
2022/07/23 01:13:48;;;;;;;1.10;1.00;;;21.80;54.50;;;;;;5072531;28;20047;-80
2022/07/23 01:16:14;;;;;;;1.05;1.02;;;21.80;54.50;;;;;;5053040;28;20408;-78
2022/07/23 01:18:40;;;;;;;1.17;1.08;;;21.70;54.50;;;;;;5054494;28;20085;-79
2022/07/23 01:21:06;;;;;;;1.08;0.90;;;21.70;54.50;;;;;;5073857;28;20718;-81
2022/07/23 01:23:32;;;;;;;1.05;0.90;;;21.60;54.50;;;;;;5074034;28;20043;-82
2022/07/23 01:25:59;;;;;;;1.92;1.20;;;21.60;54.50;;;;;;5052015;28;20028;-78
2022/07/23 01:28:26;;;;;;;1.38;1.10;;;21.60;54.60;;;;;;5052166;28;20044;-80
2022/07/23 01:30:52;;;;;;;1.10;1.00;;;21.60;54.60;;;;;;5072421;28;20029;-80
2022/07/23 01:33:18;;;;;;;1.13;0.98;;;21.50;54.60;;;;;;5058887;28;20118;-80
2022/07/23 01:35:44;;;;;;;1.77;0.90;;;21.50;54.60;;;;;;5065367;28;20031;-79
2022/07/23 01:38:12;;;;;;;1.20;1.10;;;21.50;54.70;;;;;;5054292;28;20129;-79
2022/07/23 01:40:39;;;;;;;1.08;0.98;;;21.50;54.80;;;;;;5078449;28;20432;-80
2022/07/23 01:43:05;;;;;;;1.33;1.15;;;21.40;54.70;;;;;;5060460;28;20020;-80
2022/07/23 01:45:32;;;;;;;1.05;0.95;;;21.40;54.80;;;;;;5084164;28;20093;-78
2022/07/23 01:47:58;;;;;;;1.23;1.13;;;21.40;54.80;;;;;;5047953;28;20028;-80
2022/07/23 01:50:24;;;;;;;1.02;0.95;;;21.40;54.80;;;;;;5076426;28;20047;-79
2022/07/23 01:53:13;;;;;;;1.20;1.10;;;21.40;54.90;;;;;;5068001;28;20043;-78
2022/07/23 01:55:40;;;;;;;1.20;1.10;;;21.30;54.90;;;;;;5074654;28;20032;-81
2022/07/23 01:58:06;;;;;;;0.90;0.90;;;21.30;54.90;;;;;;5054665;28;20115;-80
2022/07/23 02:00:33;;;;;;;1.42;1.10;;;21.30;55.00;;;;;;5053580;28;20038;-78
2022/07/23 02:02:58;;;;;;;1.55;1.23;;;21.30;55.60;;;;;;5055073;28;20123;-79
2022/07/23 02:05:25;;;;;;;1.30;1.20;;;21.20;55.00;;;;;;5046896;28;20056;-80
2022/07/23 02:07:52;;;;;;;1.10;1.00;;;21.20;55.00;;;;;;5051217;28;20150;-80
2022/07/23 02:10:18;;;;;;;3.17;1.00;;;21.20;55.10;;;;;;5072368;28;20077;-80
2022/07/23 02:12:43;;;;;;;1.38;1.10;;;21.20;55.10;;;;;;5074114;28;20400;-79
2022/07/23 02:15:09;;;;;;;1.33;1.17;;;21.10;55.10;;;;;;5057375;28;20043;-78
2022/07/23 02:17:35;;;;;;;1.05;1.00;;;21.10;55.20;;;;;;5091311;28;20103;-80
2022/07/23 02:20:01;;;;;;;0.95;0.95;;;21.10;55.30;;;;;;5075954;28;20595;-79
2022/07/23 02:22:27;;;;;;;1.35;1.15;;;21.10;56.00;;;;;;5060855;28;20454;-79
2022/07/23 02:24:53;;;;;;;1.33;1.23;;;21.00;55.30;;;;;;5061158;28;20043;-79
2022/07/23 02:27:18;;;;;;;1.38;1.00;;;21.00;55.30;;;;;;5075409;28;20024;-79
2022/07/23 02:29:44;;;;;;;1.58;1.40;;;21.00;55.30;;;;;;5059229;28;20039;-79
2022/07/23 02:32:10;;;;;;;1.15;1.08;;;21.00;55.40;;;;;;5056253;28;20032;-82
2022/07/23 02:34:36;;;;;;;1.40;1.30;;;20.90;55.40;;;;;;5059222;28;20039;-81
2022/07/23 02:37:02;;;;;;;1.60;1.10;;;20.90;55.40;;;;;;5075740;28;20031;-78
2022/07/23 02:39:29;;;;;;;1.20;1.10;;;20.90;55.50;;;;;;5056720;28;20036;-79
2022/07/23 02:41:55;;;;;;;1.40;1.20;;;20.90;55.50;;;;;;5043652;28;20051;-80
2022/07/23 02:44:20;;;;;;;2.38;1.30;;;20.90;55.60;;;;;;5053970;28;20069;-79
2022/07/23 02:46:50;;;;;;;1.30;1.17;;;20.80;55.60;;;;;;5054819;28;20017;-79
2022/07/23 02:49:16;;;;;;;2.78;1.33;;;20.80;55.70;;;;;;5072597;28;20035;-80
2022/07/23 02:51:48;;;;;;;1.13;1.02;;;20.80;55.70;;;;;;5072260;28;20036;-79
2022/07/23 02:54:15;;;;;;;1.58;1.48;;;20.70;56.30;;;;;;5061044;28;20036;-81
2022/07/23 02:56:41;;;;;;;1.13;1.02;;;20.70;55.70;;;;;;5040556;28;20111;-87
2022/07/23 02:59:07;;;;;;;1.65;1.40;;;20.70;55.80;;;;;;5070403;28;20043;-79
2022/07/23 03:01:33;;;;;;;1.73;1.40;;;20.70;55.80;;;;;;5073392;28;20036;-85
2022/07/23 03:03:59;;;;;;;1.85;1.30;;;20.60;55.80;;;;;;5057431;28;20480;-81
2022/07/23 03:06:24;;;;;;;2.67;1.30;;;20.60;55.90;;;;;;5074604;28;20036;-82
2022/07/23 03:08:50;;;;;;;1.20;1.10;;;20.60;55.90;;;;;;5090607;28;20060;-79
2022/07/23 03:11:16;;;;;;;1.73;1.15;;;20.60;55.90;;;;;;5073673;28;20040;-81
2022/07/23 03:13:42;;;;;;;2.30;1.30;;;20.60;56.00;;;;;;5057746;28;20090;-79
2022/07/23 03:16:08;;;;;;;1.23;0.98;;;20.50;56.00;;;;;;5073991;28;20034;-81
2022/07/23 03:18:36;;;;;;;1.25;1.15;;;20.50;56.00;;;;;;5055328;28;20078;-86
2022/07/23 03:21:03;;;;;;;1.30;1.17;;;20.50;56.10;;;;;;5069995;28;20034;-79
2022/07/23 03:23:29;;;;;;;1.23;1.10;;;20.50;56.10;;;;;;5062158;28;20024;-78
2022/07/23 03:25:54;;;;;;;1.00;0.88;;;20.40;56.10;;;;;;5089997;28;20032;-79
2022/07/23 03:28:20;;;;;;;1.85;1.13;;;20.40;56.10;;;;;;5071701;28;20028;-86
2022/07/23 03:30:48;;;;;;;1.77;1.08;;;20.40;56.20;;;;;;5087133;28;20532;-83
2022/07/23 03:33:18;;;;;;;1.90;1.08;;;20.40;56.20;;;;;;5096501;28;20480;-78
2022/07/23 03:35:46;;;;;;;0.90;0.90;;;20.40;56.20;;;;;;5087279;28;20063;-79
2022/07/23 03:38:18;;;;;;;1.17;1.08;;;20.30;56.20;;;;;;5048030;28;20127;-79
2022/07/23 03:40:44;;;;;;;0.90;0.90;;;20.30;56.20;;;;;;5078199;28;20115;-86
2022/07/23 03:43:10;;;;;;;1.20;1.10;;;20.30;56.20;;;;;;5077062;28;20032;-79
2022/07/23 03:45:36;;;;;;;1.42;1.10;;;20.30;56.30;;;;;;5038212;28;20555;-80
2022/07/23 03:48:01;;;;;;;1.20;1.10;;;20.30;56.40;;;;;;5057914;28;20032;-78
2022/07/23 03:50:28;;;;;;;2.28;1.30;;;20.20;56.30;;;;;;5073586;28;20059;-79
2022/07/23 03:52:54;;;;;;;1.25;1.10;;;20.20;56.40;;;;;;5073568;28;20056;-79
2022/07/23 03:55:20;;;;;;;1.27;1.10;;;20.20;56.40;;;;;;5069394;28;20032;-79
2022/07/23 03:57:46;;;;;;;1.20;1.10;;;20.20;56.40;;;;;;5052972;28;20028;-83
2022/07/23 04:00:13;;;;;;;1.20;1.10;;;20.10;56.40;;;;;;5072233;28;20076;-82
2022/07/23 04:02:42;;;;;;;0.90;0.90;;;20.10;56.50;;;;;;5072866;28;20513;-78
2022/07/23 04:05:10;;;;;;;1.17;1.05;;;20.10;56.50;;;;;;5073692;28;20040;-78
2022/07/23 04:07:37;;;;;;;1.10;0.98;;;20.10;56.60;;;;;;5084162;28;20036;-79
2022/07/23 04:10:03;;;;;;;1.15;1.05;;;20.10;56.60;;;;;;5088783;28;20461;-80
2022/07/23 04:12:29;;;;;;;0.90;0.90;;;20.00;56.60;;;;;;5071677;28;20161;-79
2022/07/23 04:14:55;;;;;;;1.35;1.20;;;20.00;56.60;;;;;;5076972;28;20467;-79
2022/07/23 04:17:21;;;;;;;1.90;1.35;;;20.00;56.60;;;;;;5088952;28;20130;-79
2022/07/23 04:19:47;;;;;;;1.48;1.02;;;20.00;56.70;;;;;;5088506;28;20119;-80
2022/07/23 04:22:16;;;;;;;1.20;1.10;;;20.00;56.70;;;;;;5072671;28;20056;-85
2022/07/23 04:24:42;;;;;;;1.17;1.10;;;19.90;56.70;;;;;;5062172;28;20133;-80
2022/07/23 04:27:08;;;;;;;2.33;1.00;;;19.90;56.70;;;;;;5073865;28;20086;-80
2022/07/23 04:29:34;;;;;;;1.58;1.10;;;19.90;56.80;;;;;;5063209;28;20032;-79
2022/07/23 04:32:01;;;;;;;0.98;0.98;;;19.90;56.90;;;;;;5055551;28;20024;-79
2022/07/23 04:34:27;;;;;;;1.10;1.00;;;19.90;56.90;;;;;;5053931;28;20572;-82
2022/07/23 04:36:53;;;;;;;1.77;1.10;;;19.90;56.90;;;;;;5071215;28;20028;-82
2022/07/23 04:39:19;;;;;;;1.02;0.93;;;19.80;56.90;;;;;;5057034;28;20415;-79
2022/07/23 04:41:46;;;;;;;1.30;1.15;;;19.80;56.90;;;;;;5069848;28;20036;-85
2022/07/23 04:44:12;;;;;;;1.05;1.00;;;19.80;57.00;;;;;;5049121;28;20064;-78
2022/07/23 04:46:38;;;;;;;1.95;1.27;;;19.80;57.00;;;;;;5058210;28;20058;-79
2022/07/23 04:49:06;;;;;;;1.17;1.10;;;19.80;57.00;;;;;;5056133;28;20105;-79
2022/07/23 04:51:32;;;;;;;1.05;0.90;;;19.80;57.10;;;;;;5039771;28;20568;-78
2022/07/23 04:53:58;;;;;;;1.05;0.90;;;19.70;57.10;;;;;;5070274;28;20372;-79
2022/07/23 04:56:23;;;;;;;0.90;0.90;;;19.70;57.10;;;;;;5056340;28;20051;-79
2022/07/23 04:58:49;;;;;;;0.98;0.90;;;19.70;57.10;;;;;;5071258;28;20397;-83
2022/07/23 05:01:16;;;;;;;0.88;0.88;;;19.70;57.10;;;;;;5070849;28;20023;-80
2022/07/23 05:03:42;;;;;;;0.80;0.80;;;19.70;57.20;;;;;;5050104;28;20044;-79
2022/07/23 05:06:07;;;;;;;1.00;0.90;;;19.70;57.20;;;;;;5068098;28;20020;-80
2022/07/23 05:08:34;;;;;;;0.90;0.90;;;19.70;57.20;;;;;;5062557;28;20158;-82
2022/07/23 05:11:00;;;;;;;1.02;0.93;;;19.70;57.30;;;;;;5054590;28;20115;-80
2022/07/23 05:13:27;;;;;;;1.90;1.00;;;19.70;57.40;;;;;;5050145;28;20115;-82
2022/07/23 05:15:53;;;;;;;1.80;1.15;;;19.70;57.40;;;;;;5091530;28;20119;-81
2022/07/23 05:18:19;;;;;;;1.10;1.00;;;19.70;57.40;;;;;;5041685;28;20028;-79
2022/07/23 05:20:45;;;;;;;1.10;0.95;;;19.70;57.40;;;;;;5069649;28;20523;-77
2022/07/23 05:23:14;;;;;;;0.90;0.90;;;19.60;57.40;;;;;;5070412;28;20101;-80
2022/07/23 05:25:40;;;;;;;0.90;0.90;;;19.60;57.40;;;;;;5083480;28;20464;-79
2022/07/23 05:28:06;;;;;;;0.90;0.90;;;19.60;57.50;;;;;;5055494;28;20406;-81
2022/07/23 05:30:33;;;;;;;0.95;0.85;;;19.60;57.50;;;;;;5057488;28;20043;-79
2022/07/23 05:33:01;;;;;;;1.17;0.90;;;19.60;57.50;;;;;;5067591;28;20016;-79
2022/07/23 05:35:27;;;;;;;1.15;0.80;;;19.60;57.60;;;;;;5058541;28;20047;-80
2022/07/23 05:38:10;;;;;;;1.17;0.98;;;19.60;57.60;;;;;;5057703;28;20028;-78
2022/07/23 05:40:35;;;;;;;0.95;0.90;;;19.60;57.50;;;;;;5053906;28;20341;-83
2022/07/23 05:43:01;;;;;;;0.82;0.82;;;19.60;57.60;;;;;;5070196;28;20028;-78
2022/07/23 05:45:27;;;;;;;0.90;0.90;;;19.60;57.60;;;;;;5072357;28;20040;-79
2022/07/23 05:47:53;;;;;;;1.52;1.00;;;19.60;57.60;;;;;;5055193;28;20122;-83
2022/07/23 05:50:26;;;;;;;1.05;0.98;;;19.60;57.60;;;;;;5054671;28;20491;-78
2022/07/23 05:52:59;;;;;;;1.63;1.02;;;19.60;57.60;;;;;;5074487;28;20032;-81
2022/07/23 05:55:28;;;;;;;0.90;0.90;;;19.60;57.70;;;;;;5072970;28;20036;-78
2022/07/23 05:57:56;;;;;;;0.95;0.95;;;19.60;57.60;;;;;;5068109;28;20472;-78
2022/07/23 06:00:22;;;;;;;0.80;0.80;;;19.60;57.70;;;;;;5073575;28;20048;-78
2022/07/23 06:02:48;;;;;;;1.20;1.05;;;19.60;57.70;;;;;;5053503;28;20548;-80
2022/07/23 06:05:15;;;;;;;1.10;0.90;;;19.60;57.70;;;;;;5055107;28;20476;-78
2022/07/23 06:07:41;;;;;;;1.08;0.98;;;19.60;57.70;;;;;;5069965;28;20050;-81
2022/07/23 06:10:07;;;;;;;1.17;1.08;;;19.60;57.70;;;;;;5057275;28;20534;-82
2022/07/23 06:12:34;;;;;;;0.80;0.80;;;19.60;57.70;;;;;;5073913;28;20028;-78
2022/07/23 06:15:00;;;;;;;0.88;0.88;;;19.60;57.70;;;;;;5074996;28;20052;-78
2022/07/23 06:17:26;;;;;;;1.77;1.10;;;19.60;57.70;;;;;;5074604;28;20090;-79
2022/07/23 06:19:53;;;;;;;1.10;1.00;;;19.60;57.70;;;;;;5060510;28;20436;-82
2022/07/23 06:22:19;;;;;;;0.90;0.90;;;19.60;58.30;;;;;;5055498;28;20016;-79
2022/07/23 06:24:45;;;;;;;0.93;0.90;;;19.60;57.60;;;;;;5073115;28;20033;-79
2022/07/23 06:27:11;;;;;;;1.00;0.90;;;19.60;57.60;;;;;;5070901;28;20443;-78
2022/07/23 06:29:37;;;;;;;0.80;0.80;;;19.60;57.60;;;;;;5072309;28;20032;-78
2022/07/23 06:32:03;;;;;;;0.80;0.80;;;19.60;57.70;;;;;;5076178;28;20073;-78
2022/07/23 06:34:28;;;;;;;0.77;0.77;;;19.70;57.70;;;;;;5058648;28;20055;-82
2022/07/23 06:36:55;;;;;;;0.70;0.70;;;19.70;57.60;;;;;;5078345;28;20035;-82
2022/07/23 06:39:21;;;;;;;0.80;0.80;;;19.70;57.70;;;;;;5087357;28;20024;-80
2022/07/23 06:41:48;;;;;;;0.90;0.90;;;19.70;57.60;;;;;;5072909;28;20032;-82
2022/07/23 06:44:16;;;;;;;0.90;0.90;;;19.70;57.60;;;;;;5071662;28;20028;-79
2022/07/23 06:46:42;;;;;;;0.80;0.80;;;19.70;57.60;;;;;;5056891;28;20043;-79
2022/07/23 06:49:09;;;;;;;1.02;0.80;;;19.70;57.60;;;;;;5073263;28;20078;-80
2022/07/23 06:51:35;;;;;;;0.80;0.80;;;19.70;57.60;;;;;;5075750;28;20111;-79
2022/07/23 06:54:01;;;;;;;1.10;1.00;;;19.80;57.60;;;;;;5070402;28;20202;-86
2022/07/23 06:56:27;;;;;;;0.90;0.85;;;19.70;57.60;;;;;;5074453;28;20028;-79
2022/07/23 06:58:54;;;;;;;0.73;0.73;;;19.80;57.70;;;;;;5059138;28;20028;-78
2022/07/23 07:01:19;;;;;;;0.80;0.80;;;19.80;57.70;;;;;;5092488;28;20361;-79
2022/07/23 07:03:46;;;;;;;0.90;0.90;;;19.80;57.70;;;;;;5058132;28;20048;-78
2022/07/23 07:06:12;;;;;;;1.10;0.90;;;19.80;57.70;;;;;;5054618;28;20036;-84
2022/07/23 07:08:38;;;;;;;0.80;0.80;;;19.80;57.70;;;;;;5079089;28;20024;-79
2022/07/23 07:11:03;;;;;;;0.82;0.82;;;19.80;57.70;;;;;;5059902;28;20074;-78
2022/07/23 07:13:29;;;;;;;1.00;1.00;;;19.80;57.70;;;;;;5055399;28;20031;-79
2022/07/23 07:15:55;;;;;;;0.90;0.90;;;19.80;57.70;;;;;;5057926;28;20105;-78
2022/07/23 07:18:21;;;;;;;1.00;0.90;;;19.90;57.80;;;;;;5070856;28;20039;-79
2022/07/23 07:20:47;;;;;;;0.93;0.85;;;19.90;57.80;;;;;;5089418;28;20032;-79
2022/07/23 07:23:13;;;;;;;0.82;0.82;;;19.90;57.80;;;;;;5058317;28;20032;-79
2022/07/23 07:25:38;;;;;;;1.70;0.85;;;19.90;57.80;;;;;;5059341;28;20035;-86
2022/07/23 07:28:04;;;;;;;0.90;0.90;;;19.90;57.80;;;;;;5073833;28;20036;-79
2022/07/23 07:30:30;;;;;;;1.05;0.90;;;19.90;57.80;;;;;;5055725;28;20447;-79
2022/07/23 07:32:56;;;;;;;0.90;0.90;;;19.90;57.80;;;;;;5088727;28;20438;-79
2022/07/23 07:35:21;;;;;;;0.93;0.93;;;20.00;57.90;;;;;;5068991;28;20032;-78
2022/07/23 07:37:47;;;;;;;1.05;0.98;;;20.00;57.90;;;;;;5073727;28;20437;-84
2022/07/23 07:40:13;;;;;;;0.75;0.75;;;20.00;57.80;;;;;;5060084;28;20029;-80
2022/07/23 07:42:49;;;;;;;1.00;0.90;;;20.00;57.80;;;;;;5053422;28;20042;-80
2022/07/23 07:45:16;;;;;;;1.52;0.98;;;20.00;57.80;;;;;;5087882;28;20112;-79
2022/07/23 07:47:42;;;;;;;1.10;1.00;;;20.00;57.70;;;;;;5086138;28;20039;-78
2022/07/23 07:50:08;;;;;;;0.98;0.88;;;20.10;57.70;;;;;;5086554;28;20070;-79
2022/07/23 07:52:37;;;;;;;1.00;0.90;;;20.10;57.70;;;;;;5057280;28;20040;-78
2022/07/23 07:55:08;;;;;;;1.02;1.00;;;20.20;57.80;;;;;;5079399;28;20086;-82
2022/07/23 07:57:34;;;;;;;1.20;0.88;;;20.20;57.70;;;;;;5087522;28;20028;-79
2022/07/23 08:00:01;;;;;;;1.55;1.10;;;20.20;57.60;;;;;;5063085;28;20442;-80
2022/07/23 08:02:27;;;;;;;0.95;0.95;;;20.30;57.60;;;;;;5050131;28;20057;-79
2022/07/23 08:04:53;;;;;;;1.38;0.90;;;20.30;57.50;;;;;;5058780;28;20111;-79
2022/07/23 08:07:19;;;;;;;1.05;0.88;;;20.40;57.50;;;;;;5030991;28;20131;-84
2022/07/23 08:09:45;;;;;;;1.23;0.95;;;20.40;57.40;;;;;;5012062;28;20032;-83
2022/07/23 08:12:11;;;;;;;1.83;1.00;;;20.50;57.30;;;;;;5006908;28;20064;-82
2022/07/23 08:14:37;;;;;;;1.77;1.20;;;20.60;57.30;;;;;;5029811;28;20064;-79
2022/07/23 08:17:03;;;;;;;1.20;0.90;;;20.60;57.20;;;;;;5034778;28;20025;-79
2022/07/23 08:19:29;;;;;;;1.70;0.90;;;20.70;57.20;;;;;;5013317;28;20034;-78
2022/07/23 08:21:55;;;;;;;1.00;1.00;;;20.70;57.10;;;;;;5033372;28;20039;-79
2022/07/23 08:24:20;;;;;;;1.00;0.90;;;20.80;57.00;;;;;;5031587;28;20041;-79
2022/07/23 08:26:46;;;;;;;1.23;0.90;;;20.80;56.90;;;;;;5030899;28;20029;-81
2022/07/23 08:29:12;;;;;;;1.10;1.00;;;20.90;56.90;;;;;;5018298;28;20087;-84
2022/07/23 08:31:40;;;;;;;0.70;0.70;;;21.00;56.80;;;;;;5026658;28;20030;-82
2022/07/23 08:34:05;;;;;;;1.33;1.05;;;21.00;56.80;;;;;;5013943;28;20056;-80
2022/07/23 08:36:32;;;;;;;1.92;0.95;;;21.10;56.70;;;;;;5024829;28;20441;-81
2022/07/23 08:38:59;;;;;;;1.00;0.90;;;21.20;56.60;;;;;;5036113;28;20052;-81
2022/07/23 08:41:25;;;;;;;0.93;0.85;;;21.30;56.60;;;;;;5017307;28;20116;-84
2022/07/23 08:43:52;;;;;;;1.00;0.90;;;21.40;56.50;;;;;;5037429;28;20448;-81
2022/07/23 08:46:20;;;;;;;0.90;0.90;;;21.40;56.40;;;;;;5018842;28;20409;-82
2022/07/23 08:48:49;;;;;;;1.48;1.10;;;21.50;56.40;;;;;;5033578;28;20028;-81
2022/07/23 08:51:16;;;;;;;0.90;0.75;;;21.60;56.40;;;;;;5054671;28;20099;-80
2022/07/23 08:53:42;;;;;;;1.00;1.00;;;21.70;56.30;;;;;;5032508;28;20040;-83
2022/07/23 08:56:09;;;;;;;0.90;0.90;;;21.80;56.20;;;;;;5047104;28;20036;-83
2022/07/23 08:58:34;;;;;;;0.85;0.85;;;21.80;56.10;;;;;;5032713;28;20117;-81
2022/07/23 09:01:01;;;;;;;1.10;0.80;;;21.90;56.10;;;;;;5031963;28;20127;-81
2022/07/23 09:03:28;;;;;;;1.27;1.00;;;22.00;56.00;;;;;;5023887;28;20037;-81
2022/07/23 09:05:56;;;;;;;1.10;1.00;;;22.10;55.90;;;;;;5048592;28;20056;-86
2022/07/23 09:08:36;;;;;;;0.80;0.80;;;22.20;55.90;;;;;;5045178;28;20048;-79
2022/07/23 09:11:05;;;;;;;0.82;0.82;;;22.30;55.90;;;;;;5047207;28;20078;-79
2022/07/23 09:13:38;;;;;;;0.85;0.85;;;22.30;55.70;;;;;;5044651;28;20472;-80
2022/07/23 09:16:18;;;;;;;0.80;0.80;;;22.40;55.60;;;;;;5050671;28;20040;-81
2022/07/23 09:18:51;;;;;;;1.33;0.90;;;22.50;55.70;;;;;;5041974;28;20409;-80
2022/07/23 09:21:31;;;;;;;0.80;0.80;;;22.60;55.50;;;;;;5033553;28;20115;-78
2022/07/23 09:24:01;;;;;;;1.13;1.02;;;22.70;55.50;;;;;;5028948;28;20021;-79
2022/07/23 09:26:30;;;;;;;1.67;0.98;;;22.80;55.40;;;;;;5045417;28;20035;-80
2022/07/23 09:29:03;;;;;;;1.13;0.90;;;22.90;55.40;;;;;;5050831;28;20120;-80
2022/07/23 09:31:42;;;;;;;0.80;0.80;;;23.00;55.30;;;;;;5049218;28;20030;-81
2022/07/23 09:34:13;;;;;;;0.90;0.90;;;23.10;55.30;;;;;;5032521;28;20028;-80
2022/07/23 09:36:40;;;;;;;0.85;0.85;;;23.20;55.20;;;;;;5032928;28;20095;-79
2022/07/23 09:39:07;;;;;;;0.85;0.85;;;23.30;55.20;;;;;;5015446;28;20033;-80
2022/07/23 09:41:46;;;;;;;1.08;0.95;;;23.30;55.10;;;;;;5036225;28;20040;-78
2022/07/23 09:44:19;;;;;;;1.23;1.00;;;23.40;55.20;;;;;;5039326;28;20033;-78
2022/07/23 09:46:48;;;;;;;0.93;0.82;;;23.50;55.00;;;;;;5048023;28;20037;-80
2022/07/23 09:49:15;;;;;;;0.70;0.70;;;23.60;55.00;;;;;;5022677;28;20029;-81
2022/07/23 09:51:56;;;;;;;0.93;0.90;;;23.70;54.90;;;;;;5029863;28;20029;-81
2022/07/23 09:54:29;;;;;;;1.00;0.80;;;23.80;55.00;;;;;;5047891;28;20120;-79
2022/07/23 09:56:56;;;;;;;1.02;0.90;;;23.90;54.80;;;;;;5059731;28;20033;-79
2022/07/23 09:59:25;;;;;;;0.90;0.90;;;24.00;54.80;;;;;;5043294;28;20144;-77
2022/07/23 10:01:56;;;;;;;0.90;0.90;;;24.10;54.80;;;;;;5051997;28;20477;-79
2022/07/23 10:04:24;;;;;;;0.75;0.70;;;24.20;54.80;;;;;;5034218;28;20063;-79
2022/07/23 10:07:10;;;;;;;0.90;0.90;;;24.30;54.70;;;;;;5054505;28;20025;-79
2022/07/23 10:09:56;;;;;;;0.95;0.80;;;24.40;54.60;;;;;;5053638;28;20511;-78
2022/07/23 10:15:15;;;;;;;0.77;0.77;;;24.60;54.40;;;;;;5044631;28;20040;-78
2022/07/23 10:17:41;;;;;;;0.80;0.80;;;24.70;54.40;;;;;;5071891;28;20029;-80
2022/07/23 10:20:07;;;;;;;1.30;1.00;;;24.80;54.40;;;;;;5046517;28;20490;-80
2022/07/23 10:22:48;;;;;;;0.80;0.80;;;24.80;54.30;;;;;;5040921;28;20016;-81
2022/07/23 10:25:34;;;;;;;0.80;0.80;;;24.90;54.30;;;;;;5050775;28;20063;-78
2022/07/23 10:28:00;;;;;;;0.98;0.80;;;25.10;54.30;;;;;;5034059;28;20094;-77
2022/07/23 10:30:30;;;;;;;0.80;0.80;;;25.10;54.10;;;;;;5041729;28;20096;-78
2022/07/23 10:33:19;;;;;;;0.88;0.88;;;25.20;54.10;;;;;;5040111;28;20083;-78
2022/07/23 10:36:03;;;;;;;0.95;0.90;;;25.30;54.00;;;;;;5036080;28;20071;-78
2022/07/23 10:38:41;;;;;;;0.70;0.70;;;25.40;54.00;;;;;;5048775;28;20093;-80
2022/07/23 10:41:07;;;;;;;0.82;0.70;;;25.50;53.90;;;;;;5064138;28;20028;-78
2022/07/23 10:43:32;;;;;;;0.80;0.80;;;25.60;53.80;;;;;;5035801;28;20025;-79
2022/07/23 10:46:23;;;;;;;1.17;1.08;;;25.70;53.80;;;;;;5014717;28;20045;-77
2022/07/23 10:49:20;;;;;;;0.80;0.80;;;25.80;53.80;;;;;;5050379;28;20064;-80
2022/07/23 10:52:14;;;;;;;0.63;0.63;;;25.90;53.70;;;;;;5075711;28;20033;-78
2022/07/23 10:54:40;;;;;;;1.08;0.90;;;26.00;53.70;;;;;;5054828;28;20027;-79
2022/07/23 10:57:11;;;;;;;1.77;1.10;;;26.00;53.50;;;;;;5050275;28;20119;-80
2022/07/23 11:00:11;;;;;;;0.73;0.73;;;26.20;53.50;;;;;;5052829;28;20099;-79
2022/07/23 11:02:39;;;;;;;0.98;0.88;;;26.30;53.60;;;;;;5060233;28;20049;-82
2022/07/23 11:05:07;;;;;;;1.00;0.80;;;26.40;53.40;;;;;;5038515;28;20052;-78
2022/07/23 11:07:33;;;;;;;0.75;0.70;;;26.40;54.00;;;;;;5052484;28;20032;-80
2022/07/23 11:09:59;;;;;;;1.35;0.90;;;26.40;53.30;;;;;;5032504;28;20029;-78
2022/07/23 11:12:28;;;;;;;0.90;0.90;;;26.60;53.40;;;;;;5034471;28;20606;-79
2022/07/23 11:15:10;;;;;;;1.02;0.93;;;26.70;53.40;;;;;;5058010;28;20027;-79
2022/07/23 11:17:56;;;;;;;0.88;0.88;;;26.70;53.40;;;;;;5035860;28;20053;-79
2022/07/23 11:20:23;;;;;;;0.88;0.88;;;26.80;53.50;;;;;;5059935;28;20089;-79
2022/07/23 11:22:52;;;;;;;0.85;0.85;;;26.90;53.30;;;;;;5054583;28;20025;-79
2022/07/23 11:25:21;;;;;;;2.10;0.98;;;26.90;53.30;;;;;;5056454;28;20476;-77
2022/07/23 11:27:48;;;;;;;0.95;0.90;;;26.90;53.30;;;;;;5049475;28;20116;-79
2022/07/23 11:30:37;;;;;;;0.82;0.80;;;27.00;53.30;;;;;;5019425;28;20033;-79
2022/07/23 11:33:07;;;;;;;1.00;0.88;;;27.00;53.40;;;;;;5039117;28;20025;-79
2022/07/23 11:35:34;;;;;;;0.90;0.90;;;27.10;53.40;;;;;;5054898;28;20029;-80
2022/07/23 11:38:16;;;;;;;1.10;1.00;;;27.10;53.40;;;;;;5036952;28;20041;-80
2022/07/23 11:40:44;;;;;;;1.00;1.00;;;27.20;53.50;;;;;;5036283;28;20033;-80
2022/07/23 11:43:11;;;;;;;1.27;1.17;;;27.20;53.50;;;;;;5058618;28;20024;-78
2022/07/23 11:45:50;;;;;;;0.98;0.98;;;27.20;53.50;;;;;;5020376;28;20029;-79
2022/07/23 11:48:19;;;;;;;1.70;1.08;;;27.30;53.70;;;;;;5039983;28;20060;-78
2022/07/23 11:50:46;;;;;;;0.90;0.90;;;27.30;53.70;;;;;;5034160;28;20048;-80
2022/07/23 11:53:12;;;;;;;1.20;1.10;;;27.30;53.70;;;;;;5058870;28;20028;-79
2022/07/23 11:55:38;;;;;;;1.25;1.00;;;27.40;53.80;;;;;;5041696;28;20464;-80
2022/07/23 11:58:04;;;;;;;0.90;0.90;;;27.40;53.90;;;;;;5039172;28;20071;-79
2022/07/23 12:00:31;;;;;;;1.00;0.88;;;27.40;53.90;;;;;;5051955;28;20033;-80
2022/07/23 12:03:02;;;;;;;1.58;1.02;;;27.50;54.60;;;;;;5060405;28;20068;-80
2022/07/23 12:05:34;;;;;;;1.30;0.98;;;27.50;54.00;;;;;;5023010;28;20090;-79
2022/07/23 12:08:00;;;;;;;1.38;1.10;;;27.50;54.10;;;;;;5032172;28;20033;-80
2022/07/23 12:10:34;;;;;;;1.17;1.05;;;27.50;54.10;;;;;;5045380;28;20060;-79
2022/07/23 12:13:06;;;;;;;1.75;1.13;;;27.50;54.10;;;;;;5036520;28;20025;-83
2022/07/23 12:15:37;;;;;;;1.10;0.90;;;27.50;54.10;;;;;;5053017;28;20053;-79
2022/07/23 12:18:04;;;;;;;1.67;1.45;;;27.60;53.30;;;;;;5033125;28;20076;-79
2022/07/23 12:20:34;;;;;;;2.15;1.50;;;27.50;52.40;;;;;;5033569;28;20025;-80
2022/07/23 12:23:03;;;;;;;2.05;1.35;;;27.50;51.80;;;;;;5034484;28;20017;-84
2022/07/23 12:25:31;;;;;;;1.30;1.20;;;27.40;51.50;;;;;;5051193;28;20109;-78
2022/07/23 12:28:04;;;;;;;1.33;1.20;;;27.40;51.70;;;;;;5058892;28;20086;-77
2022/07/23 12:30:37;;;;;;;1.87;1.47;;;27.40;51.90;;;;;;5052767;28;20024;-80
2022/07/23 12:33:03;;;;;;;1.77;1.30;;;27.50;52.20;;;;;;5050821;28;20025;-81
2022/07/23 12:35:41;;;;;;;1.42;1.10;;;27.50;52.30;;;;;;5033939;28;20048;-80
2022/07/23 12:38:10;;;;;;;2.08;1.17;;;27.50;52.40;;;;;;5036761;28;20025;-80
2022/07/23 12:40:45;;;;;;;1.90;1.30;;;27.50;52.50;;;;;;5037324;28;20028;-78
2022/07/23 12:43:32;;;;;;;1.20;1.10;;;27.50;52.60;;;;;;5050602;28;20075;-79
2022/07/23 12:46:14;;;;;;;1.50;1.23;;;27.50;52.60;;;;;;5017214;28;20033;-78
2022/07/23 12:48:54;;;;;;;1.50;1.27;;;27.50;52.70;;;;;;5031694;28;20029;-80
2022/07/23 12:51:22;;;;;;;1.80;1.30;;;27.50;52.70;;;;;;5035308;28;20031;-78
2022/07/23 12:53:57;;;;;;;2.05;1.27;;;27.50;52.70;;;;;;5072411;28;20043;-79
2022/07/23 12:56:32;;;;;;;1.48;1.17;;;27.50;52.70;;;;;;5017287;28;20034;-79